createdAt,value
2022-08-17T00:02:26.768Z,12.07
2022-08-17T00:06:32.133Z,15.57
2022-08-17T00:10:35.963Z,13.13
2022-08-17T00:14:40.060Z,16.10
2022-08-17T00:18:57.648Z,12.10
2022-08-17T00:23:11.638Z,12.53
2022-08-17T00:27:15.083Z,12.53
2022-08-17T00:31:18.370Z,16.33
2022-08-17T00:35:24.701Z,13.80
2022-08-17T00:39:27.981Z,16.17
2022-08-17T00:43:35.261Z,14.47
2022-08-17T00:47:38.563Z,13.90
2022-08-17T00:51:47.532Z,16.20
2022-08-17T00:55:50.825Z,17.97
2022-08-17T01:00:02.271Z,18.20
2022-08-17T01:04:07.190Z,18.53
2022-08-17T01:08:15.378Z,18.73
2022-08-17T01:12:18.892Z,24.07
2022-08-17T01:16:25.211Z,20.80
2022-08-17T01:20:29.672Z,18.90
2022-08-17T01:24:34.901Z,20.87
2022-08-17T01:28:54.491Z,21.20
2022-08-17T01:32:59.177Z,21.93
2022-08-17T01:37:03.400Z,20.53
2022-08-17T01:41:12.611Z,24.80
2022-08-17T01:45:19.169Z,24.07
2022-08-17T01:49:22.582Z,24.53
2022-08-17T01:53:31.065Z,29.87
2022-08-17T01:57:36.161Z,29.97
2022-08-17T02:01:39.913Z,33.30
2022-08-17T02:05:43.664Z,22.37
2022-08-17T02:09:52.603Z,27.97
2022-08-17T02:14:01.037Z,29.20
2022-08-17T02:18:08.552Z,31.47
2022-08-17T02:22:12.022Z,31.03
2022-08-17T02:26:25.745Z,27.93
2022-08-17T02:31:02.201Z,37.67
2022-08-17T02:34:55.236Z,33.80
2022-08-17T02:38:58.738Z,40.00
2022-08-17T02:43:02.066Z,41.97
2022-08-17T02:47:08.803Z,39.37
2022-08-17T02:51:12.174Z,36.57
2022-08-17T02:55:18.369Z,38.37
2022-08-17T02:59:21.626Z,41.47
2022-08-17T03:03:27.782Z,72.27
2022-08-17T03:07:31.870Z,66.37
2022-08-17T03:11:35.653Z,68.77
2022-08-17T03:15:41.512Z,74.57
2022-08-17T03:19:49.102Z,58.73
2022-08-17T03:23:54.405Z,74.03
2022-08-17T03:27:58.796Z,77.90
2022-08-17T03:32:12.765Z,57.37
2022-08-17T03:36:17.608Z,72.00
2022-08-17T03:40:39.885Z,71.20
2022-08-17T03:44:50.066Z,75.07
2022-08-17T03:49:11.025Z,76.90
2022-08-17T03:53:36.209Z,62.10
2022-08-17T03:57:40.069Z,66.10
2022-08-17T04:01:44.627Z,73.97
2022-08-17T04:05:48.922Z,82.30
2022-08-17T04:09:53.836Z,85.77
2022-08-17T04:13:57.415Z,91.10
2022-08-17T04:18:00.997Z,84.63
2022-08-17T04:22:05.810Z,88.10
2022-08-17T04:26:10.605Z,86.17
2022-08-17T04:30:36.118Z,82.17
2022-08-17T04:34:39.838Z,70.53
2022-08-17T04:38:45.702Z,70.10
2022-08-17T04:43:04.130Z,75.83
2022-08-17T04:47:07.489Z,57.97
2022-08-17T04:51:17.754Z,85.37
2022-08-17T04:55:21.022Z,84.77
2022-08-17T04:59:25.878Z,75.83
2022-08-17T05:03:30.001Z,81.63
2022-08-17T05:07:33.222Z,76.43
2022-08-17T05:11:37.776Z,79.73
2022-08-17T05:15:45.115Z,78.53
2022-08-17T05:19:51.877Z,70.73
2022-08-17T05:23:58.483Z,75.07
2022-08-17T05:28:03.014Z,70.23
2022-08-17T05:32:38.089Z,72.40
2022-08-17T05:36:42.114Z,69.03
2022-08-17T05:40:48.274Z,71.40
2022-08-17T05:44:51.463Z,70.87
2022-08-17T05:49:00.370Z,64.73
2022-08-17T05:53:10.987Z,67.30
2022-08-17T05:57:27.765Z,72.27
2022-08-17T06:01:39.833Z,59.53
2022-08-17T06:05:59.083Z,58.30
2022-08-17T06:10:09.246Z,63.57
2022-08-17T06:14:27.844Z,63.37
2022-08-17T06:18:45.566Z,66.47
2022-08-17T06:22:56.662Z,66.23
2022-08-17T06:27:08.384Z,71.30
2022-08-17T06:31:20.093Z,66.73
2022-08-17T06:35:32.003Z,63.80
2022-08-17T06:39:47.631Z,69.10
2022-08-17T06:44:02.057Z,68.43
2022-08-17T06:48:13.954Z,73.10
2022-08-17T06:52:45.423Z,84.67
2022-08-17T06:56:55.199Z,76.17
2022-08-17T07:01:05.085Z,74.33
2022-08-17T07:05:10.134Z,64.63
2022-08-17T07:09:19.897Z,84.30
2022-08-17T07:13:38.776Z,78.63
2022-08-17T07:17:47.247Z,74.77
2022-08-17T07:22:01.598Z,101.63
2022-08-17T07:26:06.828Z,99.63
2022-08-17T07:30:17.594Z,94.13
2022-08-17T07:34:20.827Z,102.87
2022-08-17T07:38:28.402Z,78.93
2022-08-17T07:42:31.753Z,109.40
2022-08-17T07:47:05.385Z,94.27
2022-08-17T07:51:21.939Z,106.17
2022-08-17T07:55:31.509Z,94.80
2022-08-17T07:59:36.763Z,107.97
2022-08-17T08:03:44.877Z,98.67
2022-08-17T08:07:58.072Z,102.57
2022-08-17T08:12:02.071Z,104.03
2022-08-17T08:16:30.362Z,110.10
2022-08-17T08:20:53.525Z,112.30
2022-08-17T08:25:09.272Z,103.43
2022-08-17T08:29:23.448Z,105.60
2022-08-17T08:33:45.874Z,99.43
2022-08-17T08:38:00.763Z,99.53
2022-08-17T08:42:14.358Z,98.17
2022-08-17T08:46:29.214Z,85.00
2022-08-17T08:50:42.803Z,69.00
2022-08-17T08:54:51.363Z,72.93
2022-08-17T08:59:02.111Z,65.43
2022-08-17T09:03:52.353Z,63.87
2022-08-17T09:08:05.538Z,61.13
2022-08-17T09:12:17.996Z,57.87
2022-08-17T09:16:29.916Z,65.53
2022-08-17T09:20:40.678Z,60.07
2022-08-17T09:24:48.522Z,56.70
2022-08-17T09:29:01.540Z,48.20
2022-08-17T09:33:09.498Z,52.47
2022-08-17T09:37:21.760Z,56.90
2022-08-17T09:41:33.713Z,53.70
2022-08-17T09:45:42.874Z,55.90
2022-08-17T09:49:50.781Z,58.53
2022-08-17T09:53:54.363Z,57.33
2022-08-17T09:58:07.614Z,56.40
2022-08-17T10:02:33.046Z,50.40
2022-08-17T10:06:47.721Z,52.50
2022-08-17T10:11:02.370Z,52.40
2022-08-17T10:15:14.879Z,52.23
2022-08-17T10:19:28.045Z,53.63
2022-08-17T10:23:49.724Z,51.20
2022-08-17T10:27:59.220Z,57.00
2022-08-17T10:32:10.454Z,49.93
2022-08-17T10:36:21.850Z,55.13
2022-08-17T10:40:36.094Z,60.07
2022-08-17T10:44:48.255Z,55.53
2022-08-17T10:49:15.306Z,56.17
2022-08-17T10:53:58.639Z,53.93
2022-08-17T10:58:21.149Z,53.07
2022-08-17T11:02:31.561Z,53.17
2022-08-17T11:06:48.637Z,51.57
2022-08-17T11:11:10.885Z,54.93
2022-08-17T11:15:24.806Z,60.10
2022-08-17T11:20:13.753Z,58.07
2022-08-17T11:24:21.191Z,59.90
2022-08-17T11:28:34.423Z,52.83
2022-08-17T11:32:47.079Z,61.53
2022-08-17T11:37:36.208Z,50.67
2022-08-17T11:41:48.965Z,51.13
2022-08-17T11:46:15.690Z,49.20
2022-08-17T11:50:56.317Z,61.83
2022-08-17T11:55:12.402Z,48.07
2022-08-17T11:59:58.417Z,46.70
2022-08-17T12:04:20.936Z,49.87
2022-08-17T12:08:25.047Z,53.90
2022-08-17T12:12:33.496Z,51.13
2022-08-17T12:16:37.704Z,60.20
2022-08-17T12:20:45.148Z,55.43
2022-08-17T12:24:56.712Z,53.47
2022-08-17T12:29:03.043Z,54.13
2022-08-17T12:33:28.198Z,53.23
2022-08-17T12:37:37.018Z,56.30
2022-08-17T12:41:43.385Z,59.00
2022-08-17T12:45:56.966Z,52.30
2022-08-17T12:50:29.738Z,65.40
2022-08-17T12:54:47.981Z,65.35
2022-08-17T12:58:55.652Z,71.40
2022-08-17T13:03:02.796Z,70.67
2022-08-17T13:07:06.065Z,64.30
2022-08-17T13:11:19.502Z,68.53
2022-08-17T13:15:28.354Z,71.23
2022-08-17T13:19:40.932Z,66.93
2022-08-17T13:23:57.091Z,65.93
2022-08-17T13:28:01.813Z,85.13
2022-08-17T13:32:19.786Z,79.27
2022-08-17T13:36:33.782Z,79.47
2022-08-17T13:40:52.005Z,77.83
2022-08-17T13:44:56.803Z,112.80
2022-08-17T13:49:05.029Z,83.73
2022-08-17T13:53:21.085Z,82.47
2022-08-17T13:57:25.812Z,75.57
2022-08-17T14:01:33.364Z,96.27
2022-08-17T14:05:38.103Z,80.77
2022-08-17T14:09:45.991Z,87.97
2022-08-17T14:13:49.299Z,98.70
2022-08-17T14:17:54.332Z,110.57
2022-08-17T14:22:00.619Z,95.83
2022-08-17T14:26:04.448Z,91.13
2022-08-17T14:30:08.968Z,94.90
2022-08-17T14:34:13.794Z,93.13
2022-08-17T14:38:18.988Z,101.53
2022-08-17T14:42:24.864Z,91.20
2022-08-17T14:46:28.570Z,85.57
2022-08-17T14:50:36.315Z,128.10
2022-08-17T14:54:45.193Z,95.13
2022-08-17T14:58:49.288Z,94.17
2022-08-17T15:02:55.192Z,83.17
2022-08-17T15:07:24.287Z,105.63
2022-08-17T15:11:34.727Z,88.67
2022-08-17T15:15:38.200Z,95.00
2022-08-17T15:19:41.842Z,100.83
2022-08-17T15:23:47.931Z,117.67
2022-08-17T15:27:51.814Z,117.70
2022-08-17T15:32:00.481Z,122.00
2022-08-17T15:36:07.782Z,107.07
2022-08-17T15:40:14.356Z,94.40
2022-08-17T15:44:17.767Z,93.90
2022-08-17T15:48:22.789Z,85.10
2022-08-17T15:52:29.787Z,89.50
2022-08-17T15:56:34.575Z,94.77
2022-08-17T16:00:56.796Z,89.87
2022-08-17T16:05:06.437Z,94.03
2022-08-17T16:09:14.829Z,89.47
2022-08-17T16:13:24.110Z,95.27
2022-08-17T16:17:39.681Z,95.90
2022-08-17T16:21:44.518Z,103.50
2022-08-17T16:25:53.858Z,101.67
2022-08-17T16:30:03.044Z,97.30
2022-08-17T16:34:17.372Z,111.40
2022-08-17T16:38:23.163Z,108.20
2022-08-17T16:42:30.584Z,92.40
2022-08-17T16:46:37.403Z,102.33
2022-08-17T16:50:41.901Z,100.83
2022-08-17T16:55:08.039Z,99.67
2022-08-17T16:59:29.925Z,109.60
2022-08-17T17:03:41.856Z,104.63
2022-08-17T17:07:56.667Z,118.00
2022-08-17T17:12:04.568Z,120.40
2022-08-17T17:16:18.405Z,114.40
2022-08-17T17:20:31.529Z,118.20
2022-08-17T17:29:14.287Z,142.13
2022-08-17T17:33:22.583Z,126.23
2022-08-17T17:37:34.710Z,116.47
2022-08-17T17:41:54.961Z,137.50
2022-08-17T17:46:26.784Z,139.60
2022-08-17T17:50:49.999Z,138.63
2022-08-17T17:55:10.489Z,144.13
2022-08-17T17:59:24.122Z,140.50
2022-08-17T18:03:45.250Z,184.13
2022-08-17T18:07:55.420Z,162.60
2022-08-17T18:12:21.082Z,215.53
2022-08-17T18:16:24.994Z,208.77
2022-08-17T18:20:36.074Z,189.80
2022-08-17T18:24:56.524Z,197.60
2022-08-17T18:29:02.930Z,220.47
2022-08-17T18:33:29.238Z,228.53
2022-08-17T18:37:40.715Z,251.90
2022-08-17T18:41:45.296Z,238.50
2022-08-17T18:45:54.763Z,240.70
2022-08-17T18:50:19.706Z,254.23
2022-08-17T18:54:25.238Z,299.33
2022-08-17T18:58:28.893Z,284.97
2022-08-17T19:02:45.280Z,312.17
2022-08-17T19:07:13.653Z,309.60
2022-08-17T19:11:23.328Z,314.03
2022-08-17T19:15:33.781Z,354.23
2022-08-17T19:19:45.835Z,354.53
2022-08-17T19:23:54.633Z,359.53
2022-08-17T19:28:03.645Z,392.77
2022-08-17T19:32:10.191Z,349.90
2022-08-17T19:36:34.869Z,365.80
2022-08-17T19:40:53.823Z,346.77
2022-08-17T19:45:06.667Z,382.10
2022-08-17T19:49:18.874Z,389.93
2022-08-17T19:54:01.761Z,387.37
2022-08-17T19:58:09.594Z,370.47
2022-08-17T20:02:34.702Z,381.63
2022-08-17T20:06:41.306Z,380.17
2022-08-17T20:10:54.967Z,411.93
2022-08-17T20:15:07.074Z,386.87
2022-08-17T20:19:26.175Z,379.63
2022-08-17T20:23:46.030Z,367.87
2022-08-17T20:27:54.807Z,378.40
2022-08-17T20:32:19.945Z,376.30
2022-08-17T20:36:25.886Z,357.40
2022-08-17T20:40:36.380Z,385.00
2022-08-17T20:44:44.381Z,390.00
2022-08-17T20:48:54.424Z,368.30
2022-08-17T20:52:59.499Z,374.00
2022-08-17T20:57:13.669Z,377.13
2022-08-17T21:01:35.684Z,344.93
2022-08-17T21:06:00.356Z,354.73
2022-08-17T21:10:13.994Z,388.90
2022-08-17T21:14:27.371Z,353.77
2022-08-17T21:18:47.297Z,379.03
2022-08-17T21:23:02.814Z,354.43
2022-08-17T21:27:28.147Z,393.07
2022-08-17T21:31:35.969Z,391.57
2022-08-17T21:35:51.512Z,392.77
2022-08-17T21:39:58.807Z,391.50
2022-08-17T21:44:13.368Z,393.80
2022-08-17T21:48:20.635Z,379.00
2022-08-17T21:52:28.966Z,434.10
2022-08-17T21:56:35.582Z,393.30
2022-08-17T22:00:38.995Z,430.00
2022-08-17T22:04:43.723Z,383.73
2022-08-17T22:09:05.813Z,415.80
2022-08-17T22:13:30.408Z,402.03
2022-08-17T22:17:36.066Z,410.00
2022-08-17T22:21:41.447Z,408.43
2022-08-17T22:26:02.279Z,403.27
2022-08-17T22:30:26.222Z,431.10
2022-08-17T22:34:29.460Z,439.53
2022-08-17T22:38:38.094Z,417.60
2022-08-17T22:42:49.242Z,450.53
2022-08-17T22:46:57.125Z,429.67
2022-08-17T22:51:12.835Z,398.03
2022-08-17T22:55:36.105Z,407.07
2022-08-17T22:59:52.673Z,431.83
2022-08-17T23:03:58.214Z,411.40
2022-08-17T23:08:01.569Z,410.37
2022-08-17T23:12:09.689Z,416.40
2022-08-17T23:16:15.003Z,401.57
2022-08-17T23:20:18.865Z,431.47
2022-08-17T23:24:40.832Z,432.10
2022-08-17T23:28:44.953Z,401.60
2022-08-17T23:32:53.551Z,411.70
2022-08-17T23:36:57.757Z,415.80
2022-08-17T23:41:04.474Z,406.90
2022-08-17T23:45:10.834Z,367.83
2022-08-17T23:49:15.386Z,380.00
2022-08-17T23:53:19.712Z,344.90
2022-08-17T23:57:35.103Z,312.40
